South Daytona, FL

7:42 PM EDT on July 29, 2016 (GMT -0400)
Daytona Beach International | | Change Station

Elev 33 ft 29.18 °N, 81.06 °W | Updated 49 minutes ago

Mostly Cloudy
Mostly Cloudy
79 °F
Feels Like 79 °F
N
7
Wind Variable Wind from SW

Today
High -- | Low -- °F
--% Chance of Precip.
Yesterday
High -- | Low -- °F
Precip. -- in
Pressure 30.02 in
Visibility 10.0 miles
Clouds Few 2700 ft
Few 3400 ft
Scattered Clouds 6000 ft
Mostly Cloudy 13000 ft
Dew Point 72 °F
Humidity 79%
Rainfall 0.00 in
Snow Depth Not available.
6:43 AM 8:17 PM
Waning Crescent, 18% visible
METAR KDAB 292253Z 22006KT 10SM FEW027 FEW034 SCT060 BKN130 26/22 A3002 RMK AO2 TSE40 SLP164 TS DSIPTD T02610222 $
Pressure 30.02 in
Visibility 10.0 miles
Clouds Few 2700 ft
Few 3400 ft
Scattered Clouds 6000 ft
Mostly Cloudy 13000 ft
Dew Point 72 °F
Humidity 79%
Rainfall 0.00 in
Snow Depth Not available.
6:43 AM 8:17 PM
Waning Crescent, 18% visible
METAR KDAB 292253Z 22006KT 10SM FEW027 FEW034 SCT060 BKN130 26/22 A3002 RMK AO2 TSE40 SLP164 TS DSIPTD T02610222 $

10-Day Weather Forecast

Almanac

Astronomy

Jul. 29, 2016 Rise Set
Actual Time
Civil Twilight
Nautical Twilight
Astronomical Twilight
Moon
Length of Visible Light
Length of Day
Tomorrow will be .
, % of the Moon is Illuminated

Today's Extremes

State Highs State Lows

Community

WunderPhotos

Upload Photos

1,928,447 photos uploaded!

WunderBlog® & News

Nearby

Air Quality

  Air Quality AQ Index Pollutant
Not available.

Snow Depth

Station Depth Elevation

Earthquake Activity

City Distance Mag. Time & Date
Minimum magnitude displayed is 2.5.

Coastal Water Temperatures

Place Temperature

Stations

Nearby Weather Stations

Station Location Temp. Windchill Dew Point Humidity Wind Precip. Elev Updated Type
                   

Watches & Warnings

There are currently no watches in effect.